Weather History for Escanaba, MI

Change the Weather History Date:

Saturday, January 26, 2013

  Actual Average Record
Temperature  
Mean Temperature 19 °F -  
Max Temperature 26 °F 25 °F 42 °F (2002)
Min Temperature 12 °F 7 °F -18 °F (2009)
Degree Days  
Heating Degree Days 46    
Moisture  
Dew Point 11 °F    
Average Humidity 69    
Maximum Humidity 85    
Minimum Humidity 54    
Precipitation  
Precipitation 0.00 in - - ()
Sea Level Pressure  
Sea Level Pressure 30.27 in    
Wind  
Wind Speed 9 mph (WNW)    
Max Wind Speed 14 mph    
Max Gust Speed 21 mph    
Visibility 10 miles    
Events      
Averages and records for this station are not official NWS values.
T = Trace of Precipitation, MM = Missing Value Source: NWS Daily Summary

Daily Weather History Graph

Daily Weather History Graph

Search for Another Location

Airport:

Trip Planner

Search our weather history database for the weather conditions in past years. The results will help you decide how hot, cold, wet, or windy it might be!

Date:

Astronomy

Jan. 26, 2013 Rise Set
Actual Time 8:16 AM EST 5:46 PM EST
Civil Twilight 7:44 AM EST 6:18 PM EST
Nautical Twilight 7:08 AM EST 6:54 PM EST
Astronomical Twilight 6:32 AM EST 7:29 PM EST
Moon 5:43 PM EST (1/26) 7:32 AM EST (1/26)
Length of Visible Light 10h 34m
Length of Day
9h 29m
Full, 100% of the Moon is Illuminated
Jan 26
Full
Jan 26
Full
Feb 3
Last Quarter
Feb 10
New
Feb 17
First Quarter

Hourly Weather History & Observations

Time (EST) Temp. Windchill Dew Point Humidity Pressure Visibility Wind Dir Wind Speed Gust Speed Precip Events Conditions
12:15 AM 12.2 °F 1.7 °F 8.6 °F 85% 30.07 in 9.0 mi WNW 6.9 mph - N/A   Overcast
12:35 AM 14.0 °F 2.9 °F 8.6 °F 79% 30.07 in 10.0 mi West 8.1 mph - N/A   Overcast
12:55 AM 14.0 °F 1.2 °F 8.6 °F 79% 30.07 in 10.0 mi West 10.4 mph - N/A   Overcast
1:15 AM 14.0 °F 1.2 °F 8.6 °F 79% 30.08 in 10.0 mi WNW 10.4 mph - N/A   Overcast
1:35 AM 15.8 °F 3.4 °F 10.4 °F 79% 30.08 in 10.0 mi WNW 10.4 mph - N/A   Overcast
1:55 AM 15.8 °F 3.4 °F 8.6 °F 73% 30.09 in 10.0 mi WNW 10.4 mph - N/A   Overcast
2:15 AM 15.8 °F 2.1 °F 10.4 °F 79% 30.10 in 10.0 mi WNW 12.7 mph - N/A   Overcast
2:35 AM 15.8 °F 1.4 °F 10.4 °F 79% 30.10 in 10.0 mi WNW 13.8 mph - N/A   Overcast
2:55 AM 15.8 °F 1.4 °F 8.6 °F 73% 30.11 in 10.0 mi WNW 13.8 mph - N/A   Mostly Cloudy
3:15 AM 15.8 °F 1.4 °F 8.6 °F 73% 30.12 in 10.0 mi WNW 13.8 mph - N/A   Partly Cloudy
3:35 AM 15.8 °F 1.4 °F 10.4 °F 79% 30.13 in 10.0 mi WNW 13.8 mph 18.4 mph N/A   Mostly Cloudy
3:55 AM 15.8 °F 2.1 °F 10.4 °F 79% 30.14 in 10.0 mi WNW 12.7 mph - N/A   Overcast
4:15 AM 15.8 °F 3.4 °F 8.6 °F 73% 30.14 in 10.0 mi WNW 10.4 mph - N/A   Scattered Clouds
4:35 AM 15.8 °F 2.1 °F 8.6 °F 73% 30.14 in 7.0 mi WNW 12.7 mph - N/A   Scattered Clouds
4:55 AM 15.8 °F 2.7 °F 10.4 °F 79% 30.15 in 10.0 mi WNW 11.5 mph - N/A   Overcast
5:15 AM 15.8 °F 4.2 °F 10.4 °F 79% 30.16 in 10.0 mi WNW 9.2 mph - N/A   Mostly Cloudy
5:35 AM 15.8 °F 5.1 °F 8.6 °F 73% 30.17 in 10.0 mi WNW 8.1 mph - N/A   Partly Cloudy
5:55 AM 15.8 °F 6.1 °F 8.6 °F 73% 30.18 in 10.0 mi WNW 6.9 mph - N/A   Clear
6:15 AM 15.8 °F 7.2 °F 10.4 °F 79% 30.18 in 10.0 mi NW 5.8 mph - N/A   Mostly Cloudy
6:35 AM 17.6 °F 6.4 °F 12.2 °F 79% 30.20 in 10.0 mi NW 9.2 mph - N/A   Overcast
6:55 AM 17.6 °F 7.3 °F 12.2 °F 79% 30.20 in 10.0 mi NW 8.1 mph - N/A   Overcast
7:15 AM 17.6 °F 6.4 °F 12.2 °F 79% 30.21 in 10.0 mi NW 9.2 mph - N/A   Overcast
7:35 AM 17.6 °F 6.4 °F 10.4 °F 73% 30.22 in 10.0 mi WNW 9.2 mph - N/A   Overcast
7:55 AM 17.6 °F 5.7 °F 10.4 °F 73% 30.23 in 10.0 mi WNW 10.4 mph - N/A   Overcast
8:15 AM 15.8 °F 4.2 °F 10.4 °F 79% 30.24 in 9.0 mi WNW 9.2 mph - N/A   Mostly Cloudy
8:35 AM 15.8 °F 4.2 °F 10.4 °F 79% 30.25 in 10.0 mi WNW 9.2 mph - N/A   Partly Cloudy
8:55 AM 15.8 °F 4.2 °F 10.4 °F 79% 30.26 in 10.0 mi NW 9.2 mph - N/A   Scattered Clouds
9:15 AM 17.6 °F 6.4 °F 12.2 °F 79% 30.27 in 10.0 mi NW 9.2 mph - N/A   Clear
9:35 AM 17.6 °F 8.2 °F 12.2 °F 79% 30.27 in 10.0 mi NW 6.9 mph - N/A   Clear
9:55 AM 19.4 °F 7.9 °F 12.2 °F 74% 30.28 in 10.0 mi NW 10.4 mph - N/A   Clear
10:15 AM 19.4 °F 7.9 °F 12.2 °F 74% 30.29 in 10.0 mi NW 10.4 mph 16.1 mph N/A   Clear
10:35 AM 21.2 °F 9.5 °F 12.2 °F 68% 30.31 in 10.0 mi NW 11.5 mph 16.1 mph N/A   Clear
10:55 AM 21.2 °F 8.9 °F 12.2 °F 68% 30.31 in 8.0 mi NNW 12.7 mph 19.6 mph N/A   Clear
11:15 AM 23.0 °F 12.4 °F 12.2 °F 63% 30.31 in 10.0 mi North 10.4 mph 16.1 mph N/A   Clear
11:35 AM 23.0 °F 11.1 °F 12.2 °F 63% 30.32 in 10.0 mi NNW 12.7 mph 20.7 mph N/A   Clear
11:55 AM 23.0 °F 12.4 °F 12.2 °F 63% 30.32 in 10.0 mi NNW 10.4 mph 16.1 mph N/A   Clear
12:15 PM 24.8 °F 13.4 °F 12.2 °F 59% 30.32 in 10.0 mi NW 12.7 mph 16.1 mph N/A   Clear
12:35 PM 24.8 °F 15.3 °F 12.2 °F 59% 30.33 in 10.0 mi North 9.2 mph - N/A   Clear
12:55 PM 24.8 °F 14.0 °F 12.2 °F 59% 30.33 in 10.0 mi NW 11.5 mph - N/A   Clear
1:15 PM 24.8 °F 14.0 °F 12.2 °F 59% 30.33 in 10.0 mi NNW 11.5 mph - N/A   Clear
1:35 PM 24.8 °F 16.9 °F 12.2 °F 59% 30.33 in 10.0 mi NNW 6.9 mph - N/A   Partly Cloudy
1:55 PM 24.8 °F 17.9 °F 12.2 °F 59% 30.32 in 10.0 mi North 5.8 mph - N/A   Clear
2:15 PM 24.8 °F 14.6 °F 12.2 °F 59% 30.32 in 10.0 mi NW 10.4 mph - N/A   Scattered Clouds
2:35 PM 24.8 °F 16.1 °F 12.2 °F 59% 30.33 in 10.0 mi North 8.1 mph - N/A   Mostly Cloudy
2:55 PM 24.8 °F 17.9 °F 12.2 °F 59% 30.33 in 10.0 mi NNW 5.8 mph - N/A   Scattered Clouds
3:15 PM 24.8 °F 19.1 °F 14.0 °F 64% 30.34 in 10.0 mi North 4.6 mph - N/A   Mostly Cloudy
3:35 PM 24.8 °F 16.9 °F 12.2 °F 59% 30.35 in 10.0 mi NW 6.9 mph - N/A   Scattered Clouds
3:55 PM 26.6 °F 20.0 °F 12.2 °F 55% 30.35 in 10.0 mi North 5.8 mph - N/A   Mostly Cloudy
4:15 PM 26.6 °F 21.2 °F 12.2 °F 55% 30.36 in 10.0 mi North 4.6 mph - N/A   Overcast
4:35 PM 24.8 °F 17.9 °F 12.2 °F 59% 30.35 in 10.0 mi East 5.8 mph - N/A   Overcast
4:55 PM 24.8 °F 19.1 °F 12.2 °F 59% 30.35 in 10.0 mi East 4.6 mph - N/A   Overcast
5:15 PM 24.8 °F 20.5 °F 12.2 °F 59% 30.35 in 10.0 mi East 3.5 mph - N/A   Overcast
5:35 PM 23.0 °F - 14.0 °F 68% 30.36 in 10.0 mi Calm Calm - N/A   Overcast
5:55 PM 24.8 °F - 10.4 °F 54% 30.38 in 10.0 mi Calm Calm - N/A   Overcast
6:15 PM 24.8 °F - 12.2 °F 59% 30.37 in 10.0 mi Calm Calm - N/A   Mostly Cloudy
6:35 PM 21.2 °F 14.9 °F 12.2 °F 68% 30.37 in 10.0 mi South 4.6 mph - N/A   Partly Cloudy
6:55 PM 21.2 °F 16.4 °F 12.2 °F 68% 30.37 in 10.0 mi South 3.5 mph - N/A   Mostly Cloudy
7:15 PM 21.2 °F 16.4 °F 12.2 °F 68% 30.36 in 10.0 mi South 3.5 mph - N/A   Mostly Cloudy
7:35 PM 19.4 °F 14.3 °F 12.2 °F 74% 30.36 in 10.0 mi South 3.5 mph - N/A   Mostly Cloudy
7:55 PM 19.4 °F 11.5 °F 12.2 °F 74% 30.35 in 10.0 mi South 5.8 mph - N/A   Mostly Cloudy
8:15 PM 19.4 °F 10.4 °F 10.4 °F 68% 30.34 in 10.0 mi SSW 6.9 mph - N/A   Overcast
8:35 PM 19.4 °F 11.5 °F 10.4 °F 68% 30.35 in 10.0 mi SSW 5.8 mph - N/A   Overcast
8:55 PM 19.4 °F 10.4 °F 10.4 °F 68% 30.35 in 10.0 mi SSW 6.9 mph - N/A   Overcast
9:15 PM 19.4 °F 9.5 °F 12.2 °F 74% 30.36 in 10.0 mi SW 8.1 mph - N/A   Overcast
9:35 PM 21.2 °F 12.6 °F 12.2 °F 68% 30.36 in 10.0 mi SSW 6.9 mph - N/A   Overcast
9:55 PM 21.2 °F 12.6 °F 10.4 °F 63% 30.35 in 10.0 mi SSW 6.9 mph - N/A   Overcast
10:15 PM 21.2 °F 11.7 °F 10.4 °F 63% 30.36 in 10.0 mi SSW 8.1 mph - N/A   Overcast
10:35 PM 21.2 °F 14.9 °F 10.4 °F 63% 30.34 in 10.0 mi SSW 4.6 mph - N/A   Overcast
10:55 PM 21.2 °F 14.9 °F 10.4 °F 63% 30.35 in 10.0 mi SSW 4.6 mph - N/A   Overcast
11:15 PM 21.2 °F 13.6 °F 10.4 °F 63% 30.37 in 10.0 mi SW 5.8 mph - N/A   Overcast
11:35 PM 21.2 °F 16.4 °F 10.4 °F 63% 30.37 in 10.0 mi WSW 3.5 mph - N/A   Overcast
11:55 PM 21.2 °F 16.4 °F 10.4 °F 63% 30.37 in 10.0 mi SSW 3.5 mph - N/A   Overcast